createdAt,value
2018-09-01T00:00:46.540Z,13.10
2018-09-01T00:03:15.148Z,13.10
2018-09-01T00:05:43.888Z,13.00
2018-09-01T00:08:12.627Z,13.10
2018-09-01T00:10:41.902Z,13.10
2018-09-01T00:13:10.796Z,13.10
2018-09-01T00:15:39.326Z,13.10
2018-09-01T00:18:08.257Z,13.10
2018-09-01T00:20:36.918Z,13.10
2018-09-01T00:23:05.721Z,13.20
2018-09-01T00:25:34.536Z,13.10
2018-09-01T00:28:03.193Z,13.10
2018-09-01T00:30:32.642Z,13.20
2018-09-01T00:33:01.292Z,13.20
2018-09-01T00:35:29.952Z,13.20
2018-09-01T00:38:03.919Z,13.20
2018-09-01T00:40:33.475Z,13.10
2018-09-01T00:43:02.070Z,13.10
2018-09-01T00:45:30.862Z,13.10
2018-09-01T00:47:59.599Z,13.00
2018-09-01T00:50:28.995Z,13.20
2018-09-01T00:52:57.630Z,13.20
2018-09-01T00:55:32.546Z,13.10
2018-09-01T00:58:01.790Z,13.10
2018-09-01T01:00:30.356Z,13.10
2018-09-01T01:02:59.133Z,13.10
2018-09-01T01:05:27.709Z,13.20
2018-09-01T01:07:56.468Z,13.10
2018-09-01T01:10:25.077Z,13.20
2018-09-01T01:12:53.753Z,13.30
2018-09-01T01:15:22.487Z,13.20
2018-09-01T01:17:51.273Z,13.20
2018-09-01T01:20:19.804Z,13.10
2018-09-01T01:22:48.379Z,13.10
2018-09-01T01:25:17.124Z,13.20
2018-09-01T01:27:46.027Z,13.10
2018-09-01T01:30:14.745Z,13.20
2018-09-01T01:32:43.283Z,13.20
2018-09-01T01:35:12.283Z,13.20
2018-09-01T01:37:41.047Z,13.10
2018-09-01T01:40:09.743Z,13.10
2018-09-01T01:42:38.931Z,13.10
2018-09-01T01:45:08.157Z,13.00
2018-09-01T01:47:41.236Z,13.00
2018-09-01T01:50:11.188Z,13.00
2018-09-01T01:52:39.717Z,13.00
2018-09-01T01:55:09.117Z,13.00
2018-09-01T01:57:43.102Z,12.90
2018-09-01T02:00:11.960Z,12.90
2018-09-01T02:02:40.640Z,12.90
2018-09-01T02:05:10.491Z,12.90
2018-09-01T02:07:40.204Z,12.80
2018-09-01T02:10:09.180Z,12.90
2018-09-01T02:12:38.573Z,12.90
2018-09-01T02:15:07.822Z,12.90
2018-09-01T02:17:36.385Z,13.00
2018-09-01T02:20:05.428Z,12.90
2018-09-01T02:22:33.909Z,12.90
2018-09-01T02:25:02.536Z,12.90
2018-09-01T02:27:31.119Z,12.90
2018-09-01T02:30:00.049Z,12.90
2018-09-01T02:32:28.612Z,13.00
2018-09-01T02:34:57.212Z,12.90
2018-09-01T02:37:25.897Z,12.90
2018-09-01T02:39:54.555Z,13.00
2018-09-01T02:42:23.075Z,13.00
2018-09-01T02:44:51.599Z,13.00
2018-09-01T02:47:20.679Z,12.90
2018-09-01T02:49:49.519Z,12.90
2018-09-01T02:52:18.924Z,12.90
2018-09-01T02:54:48.271Z,12.90
2018-09-01T02:57:17.665Z,12.90
2018-09-01T02:59:46.147Z,12.80
2018-09-01T03:02:19.191Z,12.90
2018-09-01T03:04:48.268Z,12.80
2018-09-01T03:07:16.926Z,12.80
2018-09-01T03:09:46.107Z,12.80
2018-09-01T03:12:14.729Z,12.80
2018-09-01T03:14:44.067Z,12.70
2018-09-01T03:17:12.688Z,12.70
2018-09-01T03:19:41.165Z,12.80
2018-09-01T03:22:09.771Z,12.80
2018-09-01T03:24:39.104Z,12.70
2018-09-01T03:27:07.921Z,12.70
2018-09-01T03:29:36.501Z,12.70
2018-09-01T03:32:05.300Z,12.70
2018-09-01T03:34:34.664Z,12.70
2018-09-01T03:37:03.896Z,12.60
2018-09-01T03:39:32.566Z,12.60
2018-09-01T03:42:01.556Z,12.50
2018-09-01T03:44:30.065Z,12.50
2018-09-01T03:46:58.720Z,12.50
2018-09-01T03:49:28.364Z,12.40
2018-09-01T03:51:57.047Z,12.30
2018-09-01T03:54:26.873Z,12.30
2018-09-01T03:56:55.832Z,12.20
2018-09-01T03:59:24.770Z,12.10
2018-09-01T04:01:53.307Z,12.00
2018-09-01T04:04:22.205Z,11.90
2018-09-01T04:06:50.719Z,11.80
2018-09-01T04:09:19.766Z,11.70
2018-09-01T04:11:48.272Z,11.60
2018-09-01T04:14:16.844Z,11.50
2018-09-01T04:16:45.841Z,11.50
2018-09-01T04:19:18.108Z,11.40
2018-09-01T04:21:49.061Z,11.40
2018-09-01T04:24:18.025Z,11.40
2018-09-01T04:26:47.703Z,11.40
2018-09-01T04:29:17.168Z,11.30
2018-09-01T04:31:46.376Z,11.20
2018-09-01T04:34:15.082Z,11.10
2018-09-01T04:36:44.581Z,11.10
2018-09-01T04:39:13.867Z,11.00
2018-09-01T04:41:43.239Z,10.90
2018-09-01T04:44:12.355Z,10.80
2018-09-01T04:46:41.560Z,10.70
2018-09-01T04:49:10.828Z,10.70
2018-09-01T04:51:39.558Z,10.70
2018-09-01T04:54:08.214Z,10.70
2018-09-01T04:56:37.341Z,10.70
2018-09-01T04:59:06.524Z,10.70
2018-09-01T05:01:35.063Z,10.70
2018-09-01T05:04:03.639Z,10.60
2018-09-01T05:06:32.227Z,10.60
2018-09-01T05:09:01.466Z,10.60
2018-09-01T05:11:30.614Z,10.60
2018-09-01T05:13:59.980Z,10.60
2018-09-01T05:16:29.356Z,10.60
2018-09-01T05:18:57.953Z,10.60
2018-09-01T05:21:26.465Z,10.60
2018-09-01T05:23:55.068Z,10.70
2018-09-01T05:26:23.752Z,10.70
2018-09-01T05:28:52.296Z,10.80
2018-09-01T05:31:20.896Z,10.80
2018-09-01T05:33:49.704Z,11.00
2018-09-01T05:36:18.279Z,11.10
2018-09-01T05:38:47.559Z,11.10
2018-09-01T05:41:16.185Z,11.20
2018-09-01T05:43:45.995Z,11.30
2018-09-01T05:46:14.471Z,11.40
2018-09-01T05:48:43.268Z,11.50
2018-09-01T05:51:12.052Z,11.60
2018-09-01T05:53:40.974Z,11.70
2018-09-01T05:56:09.668Z,11.80
2018-09-01T05:58:38.368Z,11.90
2018-09-01T06:01:07.343Z,12.00
2018-09-01T06:03:35.887Z,12.00
2018-09-01T06:06:04.693Z,12.00
2018-09-01T06:08:33.961Z,12.10
2018-09-01T06:11:02.797Z,12.10
2018-09-01T06:13:31.512Z,12.20
2018-09-01T06:16:00.705Z,12.20
2018-09-01T06:18:29.606Z,12.20
2018-09-01T06:20:58.209Z,12.20
2018-09-01T06:23:27.368Z,12.20
2018-09-01T06:25:55.908Z,12.10
2018-09-01T06:28:27.762Z,12.10
2018-09-01T06:30:57.101Z,12.10
2018-09-01T06:33:26.189Z,12.10
2018-09-01T06:35:55.574Z,12.10
2018-09-01T06:38:24.543Z,12.10
2018-09-01T06:40:53.774Z,12.20
2018-09-01T06:43:23.110Z,12.20
2018-09-01T06:45:51.980Z,12.30
2018-09-01T06:48:20.941Z,12.30
2018-09-01T06:50:49.767Z,12.40
2018-09-01T06:53:18.431Z,12.40
2018-09-01T06:55:47.213Z,12.50
2018-09-01T06:58:15.749Z,12.50
2018-09-01T07:00:44.888Z,12.60
2018-09-01T07:03:13.904Z,12.70
2018-09-01T07:05:43.804Z,12.80
2018-09-01T07:08:12.409Z,13.00
2018-09-01T07:10:41.259Z,13.10
2018-09-01T07:13:09.869Z,13.20
2018-09-01T07:15:39.197Z,13.40
2018-09-01T07:18:08.275Z,13.50
2018-09-01T07:20:37.062Z,13.60
2018-09-01T07:23:05.952Z,13.60
2018-09-01T07:25:34.693Z,13.70
2018-09-01T07:28:03.380Z,13.90
2018-09-01T07:30:32.207Z,13.90
2018-09-01T07:33:00.710Z,14.00
2018-09-01T07:35:29.463Z,14.10
2018-09-01T07:37:58.905Z,14.10
2018-09-01T07:40:28.399Z,14.30
2018-09-01T07:42:56.979Z,14.40
2018-09-01T07:45:25.801Z,14.40
2018-09-01T07:47:54.674Z,14.40
2018-09-01T07:50:23.357Z,14.40
2018-09-01T07:52:51.898Z,14.50
2018-09-01T07:55:20.687Z,14.60
2018-09-01T07:57:49.977Z,14.60
2018-09-01T08:00:19.164Z,14.50
2018-09-01T08:02:48.426Z,14.40
2018-09-01T08:05:17.256Z,14.50
2018-09-01T08:07:47.013Z,14.50
2018-09-01T08:10:16.056Z,14.60
2018-09-01T08:12:44.972Z,14.70
2018-09-01T08:15:13.603Z,14.80
2018-09-01T08:17:42.215Z,14.80
2018-09-01T08:20:11.153Z,15.00
2018-09-01T08:22:40.012Z,15.00
2018-09-01T08:25:08.747Z,15.00
2018-09-01T08:27:37.421Z,15.00
2018-09-01T08:30:06.069Z,15.00
2018-09-01T08:32:35.258Z,15.10
2018-09-01T08:35:04.096Z,15.20
2018-09-01T08:37:33.396Z,15.40
2018-09-01T08:40:01.964Z,15.50
2018-09-01T08:42:30.738Z,15.60
2018-09-01T08:44:59.376Z,15.70
2018-09-01T08:47:27.989Z,15.90
2018-09-01T08:49:56.837Z,15.90
2018-09-01T08:52:25.517Z,16.00
2018-09-01T08:54:54.234Z,16.10
2018-09-01T08:57:22.720Z,16.10
2018-09-01T08:59:51.428Z,16.00
2018-09-01T09:02:20.117Z,16.00
2018-09-01T09:04:48.855Z,16.10
2018-09-01T09:07:17.465Z,16.30
2018-09-01T09:09:46.411Z,16.40
2018-09-01T09:12:15.605Z,16.50
2018-09-01T09:14:44.182Z,16.50
2018-09-01T09:17:12.856Z,16.60
2018-09-01T09:19:41.610Z,16.70
2018-09-01T09:22:10.866Z,16.80
2018-09-01T09:24:40.140Z,16.80
2018-09-01T09:27:09.555Z,16.70
2018-09-01T09:29:38.717Z,16.80
2018-09-01T09:32:07.801Z,16.70
2018-09-01T09:34:37.163Z,16.60
2018-09-01T09:37:06.201Z,16.60
2018-09-01T09:39:35.360Z,16.60
2018-09-01T09:42:04.919Z,16.80
2018-09-01T09:44:33.542Z,17.00
2018-09-01T09:47:02.351Z,17.20
2018-09-01T09:49:30.983Z,17.30
2018-09-01T09:51:59.575Z,17.40
2018-09-01T09:54:29.022Z,17.70
2018-09-01T09:56:57.981Z,17.90
2018-09-01T09:59:27.331Z,17.90
2018-09-01T10:02:00.545Z,18.00
2018-09-01T10:04:29.563Z,18.20
2018-09-01T10:06:58.441Z,18.30
2018-09-01T10:09:26.984Z,18.20
2018-09-01T10:11:56.392Z,17.90
2018-09-01T10:14:25.110Z,17.70
2018-09-01T10:16:55.041Z,17.70
2018-09-01T10:19:23.593Z,17.80
2018-09-01T10:21:52.292Z,17.90
2018-09-01T10:24:21.666Z,18.00
2018-09-01T10:26:50.768Z,18.10
2018-09-01T10:29:19.213Z,18.00
2018-09-01T10:31:47.815Z,17.90
2018-09-01T10:34:16.424Z,17.60
2018-09-01T10:36:45.395Z,17.40
2018-09-01T10:39:14.994Z,17.30
2018-09-01T10:41:43.840Z,17.40
2018-09-01T10:44:12.522Z,17.50
2018-09-01T10:46:41.182Z,17.30
2018-09-01T10:49:09.960Z,17.30
2018-09-01T10:51:38.509Z,17.40
2018-09-01T10:54:07.148Z,17.80
2018-09-01T10:56:36.143Z,18.30
2018-09-01T10:59:05.047Z,18.80
2018-09-01T11:01:33.900Z,19.00
2018-09-01T11:04:02.796Z,19.20
2018-09-01T11:06:31.340Z,19.10
2018-09-01T11:09:00.010Z,18.70
2018-09-01T11:11:28.885Z,18.70
2018-09-01T11:13:57.477Z,18.90
2018-09-01T11:16:26.312Z,19.00
2018-09-01T11:18:55.610Z,18.80
2018-09-01T11:21:24.223Z,18.70
2018-09-01T11:23:52.982Z,19.00
2018-09-01T11:26:21.509Z,19.00
2018-09-01T11:28:50.125Z,18.80
2018-09-01T11:31:18.799Z,18.70
2018-09-01T11:33:47.586Z,18.70
2018-09-01T11:36:16.288Z,18.50
2018-09-01T11:38:45.008Z,18.40
2018-09-01T11:41:13.574Z,18.40
2018-09-01T11:43:42.328Z,18.50
2018-09-01T11:46:11.084Z,18.90
2018-09-01T11:48:40.459Z,18.90
2018-09-01T11:51:09.180Z,19.00
2018-09-01T11:53:38.535Z,19.70
2018-09-01T11:56:06.976Z,20.00
2018-09-01T11:58:36.071Z,19.70
2018-09-01T12:01:04.601Z,19.30
2018-09-01T12:03:35.803Z,18.80
2018-09-01T12:06:04.477Z,18.60
2018-09-01T12:08:33.105Z,19.00
2018-09-01T12:11:02.871Z,19.50
2018-09-01T12:13:31.628Z,19.30
2018-09-01T12:16:00.368Z,19.10
2018-09-01T12:18:29.283Z,18.90
2018-09-01T12:20:58.075Z,19.00
2018-09-01T12:23:26.771Z,18.90
2018-09-01T12:25:55.595Z,18.90
2018-09-01T12:28:24.675Z,19.00
2018-09-01T12:30:54.180Z,19.00
2018-09-01T12:33:22.893Z,19.00
2018-09-01T12:35:51.774Z,19.10
2018-09-01T12:38:20.923Z,19.00
2018-09-01T12:40:49.540Z,19.00
2018-09-01T12:43:18.218Z,19.20
2018-09-01T12:45:46.911Z,19.40
2018-09-01T12:48:16.656Z,19.30
2018-09-01T12:50:45.461Z,19.40
2018-09-01T12:53:14.119Z,19.30
2018-09-01T12:55:42.789Z,19.60
2018-09-01T12:58:11.287Z,19.50
2018-09-01T13:00:40.396Z,19.60
2018-09-01T13:03:09.247Z,20.00
2018-09-01T13:05:38.190Z,20.40
2018-09-01T13:08:06.933Z,20.80
2018-09-01T13:10:35.876Z,21.10
2018-09-01T13:13:05.527Z,21.20
2018-09-01T13:15:34.376Z,20.80
2018-09-01T13:18:03.783Z,20.20
2018-09-01T13:20:32.723Z,19.50
2018-09-01T13:23:01.409Z,19.40
2018-09-01T13:25:30.390Z,19.10
2018-09-01T13:27:59.085Z,19.10
2018-09-01T13:30:27.755Z,18.80
2018-09-01T13:32:56.552Z,19.00
2018-09-01T13:35:25.202Z,19.10
2018-09-01T13:37:54.679Z,19.20
2018-09-01T13:40:23.385Z,19.40
2018-09-01T13:42:52.141Z,19.30
2018-09-01T13:45:20.730Z,19.30
2018-09-01T13:47:50.303Z,19.50
2018-09-01T13:50:19.884Z,19.70
2018-09-01T13:52:48.675Z,19.80
2018-09-01T13:55:18.043Z,19.50
2018-09-01T13:57:46.776Z,19.40
2018-09-01T14:00:15.714Z,19.50
2018-09-01T14:02:44.890Z,19.40
2018-09-01T14:05:13.815Z,19.40
2018-09-01T14:07:42.612Z,19.20
2018-09-01T14:10:11.528Z,19.40
2018-09-01T14:12:40.571Z,19.60
2018-09-01T14:15:09.419Z,19.60
2018-09-01T14:17:38.713Z,19.70
2018-09-01T14:20:08.341Z,19.50
2018-09-01T14:22:37.596Z,19.40
2018-09-01T14:25:06.696Z,19.20
2018-09-01T14:27:36.001Z,19.40
2018-09-01T14:30:05.783Z,19.60
2018-09-01T14:32:34.453Z,19.90
2018-09-01T14:35:03.125Z,19.90
2018-09-01T14:37:32.474Z,20.00
2018-09-01T14:40:01.020Z,20.10
2018-09-01T14:42:29.638Z,20.00
2018-09-01T14:44:58.455Z,19.80
2018-09-01T14:47:27.364Z,19.60
2018-09-01T14:49:56.095Z,19.60
2018-09-01T14:52:24.881Z,19.60
2018-09-01T14:54:53.806Z,19.70
2018-09-01T14:57:22.722Z,19.80
2018-09-01T14:59:51.461Z,20.10
2018-09-01T15:02:20.726Z,20.30
2018-09-01T15:04:50.309Z,20.50
2018-09-01T15:07:19.688Z,20.70
2018-09-01T15:09:49.085Z,20.50
2018-09-01T15:12:18.139Z,20.50
2018-09-01T15:14:47.382Z,21.10
2018-09-01T15:17:16.545Z,21.20
2018-09-01T15:19:45.826Z,21.30
2018-09-01T15:22:14.703Z,21.30
2018-09-01T15:24:44.262Z,21.80
2018-09-01T15:27:13.146Z,23.00
2018-09-01T15:29:41.805Z,24.20
2018-09-01T15:32:11.127Z,24.10
2018-09-01T15:34:39.830Z,23.60
2018-09-01T15:37:08.437Z,22.90
2018-09-01T15:39:37.230Z,22.60
2018-09-01T15:42:06.025Z,22.20
2018-09-01T15:44:34.619Z,21.50
2018-09-01T15:47:03.328Z,21.20
2018-09-01T15:49:32.597Z,20.80
2018-09-01T15:52:01.717Z,20.40
2018-09-01T15:54:31.061Z,20.10
2018-09-01T15:57:00.082Z,19.70
2018-09-01T15:59:28.713Z,19.70
2018-09-01T16:01:57.533Z,19.90
2018-09-01T16:04:26.129Z,20.50
2018-09-01T16:06:55.001Z,20.60
2018-09-01T16:09:23.625Z,20.40
2018-09-01T16:11:52.676Z,20.90
2018-09-01T16:14:21.741Z,22.20
2018-09-01T16:16:51.006Z,22.60
2018-09-01T16:19:19.596Z,21.80
2018-09-01T16:21:48.426Z,21.40
2018-09-01T16:24:17.909Z,21.20
2018-09-01T16:26:46.717Z,20.90
2018-09-01T16:29:16.277Z,20.40
2018-09-01T16:31:44.855Z,20.20
2018-09-01T16:34:13.571Z,20.00
2018-09-01T16:36:42.921Z,19.90
2018-09-01T16:39:12.205Z,19.70
2018-09-01T16:41:41.465Z,19.50
2018-09-01T16:44:10.483Z,19.20
2018-09-01T16:46:39.571Z,19.10
2018-09-01T16:49:08.588Z,18.80
2018-09-01T16:51:37.808Z,18.70
2018-09-01T16:54:07.460Z,18.70
2018-09-01T16:56:36.919Z,18.50
2018-09-01T16:59:06.021Z,18.50
2018-09-01T17:01:34.707Z,18.50
2018-09-01T17:04:03.312Z,18.40
2018-09-01T17:06:32.200Z,18.40
2018-09-01T17:09:00.936Z,18.40
2018-09-01T17:11:29.681Z,18.30
2018-09-01T17:13:58.283Z,18.30
2018-09-01T17:16:27.238Z,18.20
2018-09-01T17:18:55.821Z,18.10
2018-09-01T17:21:24.723Z,18.10
2018-09-01T17:23:54.168Z,18.10
2018-09-01T17:26:23.020Z,18.00
2018-09-01T17:28:51.651Z,18.00
2018-09-01T17:31:20.205Z,18.00
2018-09-01T17:33:49.076Z,17.90
2018-09-01T17:36:17.708Z,17.80
2018-09-01T17:38:46.662Z,17.80
2018-09-01T17:41:15.402Z,17.80
2018-09-01T17:43:44.022Z,17.70
2018-09-01T17:46:12.706Z,17.60
2018-09-01T17:48:42.460Z,17.50
2018-09-01T17:51:11.303Z,17.40
2018-09-01T17:53:40.025Z,17.30
2018-09-01T17:56:09.500Z,17.10
2018-09-01T17:58:38.351Z,17.00
2018-09-01T18:01:07.622Z,16.90
2018-09-01T18:03:36.797Z,16.90
2018-09-01T18:06:05.872Z,16.70
2018-09-01T18:08:34.748Z,16.70
2018-09-01T18:11:03.410Z,16.60
2018-09-01T18:13:32.071Z,16.50
2018-09-01T18:16:00.813Z,16.40
2018-09-01T18:18:29.648Z,16.20
2018-09-01T18:20:58.428Z,16.20
2018-09-01T18:23:27.293Z,16.10
2018-09-01T18:25:55.971Z,16.00
2018-09-01T18:28:25.270Z,16.00
2018-09-01T18:30:54.045Z,15.90
2018-09-01T18:33:22.683Z,15.80
2018-09-01T18:35:51.609Z,15.80
2018-09-01T18:38:20.141Z,15.70
2018-09-01T18:40:48.927Z,15.70
2018-09-01T18:43:17.568Z,15.60
2018-09-01T18:45:46.114Z,15.60
2018-09-01T18:48:14.890Z,15.60
2018-09-01T18:50:44.428Z,15.50
2018-09-01T18:53:13.099Z,15.50
2018-09-01T18:55:41.679Z,15.40
2018-09-01T18:58:10.227Z,15.40
2018-09-01T19:00:39.088Z,15.40
2018-09-01T19:03:08.046Z,15.30
2018-09-01T19:05:36.795Z,15.30
2018-09-01T19:08:06.041Z,15.20
2018-09-01T19:10:34.700Z,15.20
2018-09-01T19:13:03.484Z,15.20
2018-09-01T19:15:32.361Z,15.20
2018-09-01T19:18:01.095Z,15.20
2018-09-01T19:20:29.782Z,15.10
2018-09-01T19:22:59.327Z,15.10
2018-09-01T19:25:28.483Z,15.10
2018-09-01T19:27:57.333Z,15.00
2018-09-01T19:30:26.064Z,15.00
2018-09-01T19:32:55.208Z,14.90
2018-09-01T19:35:24.004Z,14.90
2018-09-01T19:37:53.170Z,14.80
2018-09-01T19:40:21.893Z,14.90
2018-09-01T19:42:50.465Z,14.80
2018-09-01T19:45:19.405Z,14.80
2018-09-01T19:47:48.742Z,14.80
2018-09-01T19:50:17.534Z,14.70
2018-09-01T19:52:46.540Z,14.70
2018-09-01T19:55:15.392Z,14.70
2018-09-01T19:57:44.487Z,14.60
2018-09-01T20:00:13.319Z,14.60
2018-09-01T20:02:42.087Z,14.60
2018-09-01T20:05:10.979Z,14.60
2018-09-01T20:07:41.064Z,14.60
2018-09-01T20:10:10.678Z,14.50
2018-09-01T20:12:39.421Z,14.50
2018-09-01T20:15:08.918Z,14.50
2018-09-01T20:17:37.619Z,14.50
2018-09-01T20:20:07.436Z,14.50
2018-09-01T20:22:36.248Z,14.40
2018-09-01T20:25:04.925Z,14.40
2018-09-01T20:27:34.237Z,14.40
2018-09-01T20:30:03.260Z,14.30
2018-09-01T20:32:32.600Z,14.10
2018-09-01T20:35:06.588Z,14.00
2018-09-01T20:37:35.247Z,13.90
2018-09-01T20:40:04.073Z,13.80
2018-09-01T20:42:32.848Z,13.60
2018-09-01T20:45:01.701Z,13.50
2018-09-01T20:47:30.564Z,13.30
2018-09-01T20:49:59.315Z,13.20
2018-09-01T20:52:28.274Z,13.00
2018-09-01T20:54:57.490Z,13.00
2018-09-01T20:57:26.717Z,12.90
2018-09-01T20:59:55.321Z,12.80
2018-09-01T21:02:24.037Z,12.80
2018-09-01T21:04:53.178Z,12.70
2018-09-01T21:07:22.715Z,12.70
2018-09-01T21:09:51.366Z,12.70
2018-09-01T21:12:20.690Z,12.70
2018-09-01T21:14:49.348Z,12.60
2018-09-01T21:17:18.520Z,12.80
2018-09-01T21:19:48.026Z,12.80
2018-09-01T21:22:16.610Z,12.90
2018-09-01T21:24:46.557Z,12.90
2018-09-01T21:27:15.298Z,12.90
2018-09-01T21:29:44.760Z,13.00
2018-09-01T21:32:13.351Z,13.00
2018-09-01T21:34:42.243Z,13.00
2018-09-01T21:37:11.635Z,13.00
2018-09-01T21:39:40.393Z,13.10
2018-09-01T21:42:09.064Z,13.10
2018-09-01T21:44:38.209Z,13.10
2018-09-01T21:47:07.537Z,13.20
2018-09-01T21:49:36.431Z,13.20
2018-09-01T21:52:05.573Z,13.20
2018-09-01T21:54:34.586Z,13.20
2018-09-01T21:57:03.487Z,13.20
2018-09-01T21:59:32.511Z,13.20
2018-09-01T22:02:06.362Z,13.20
2018-09-01T22:04:40.318Z,13.20
2018-09-01T22:07:09.811Z,13.20
2018-09-01T22:09:38.407Z,13.20
2018-09-01T22:12:07.036Z,13.20
2018-09-01T22:14:35.568Z,13.20
2018-09-01T22:17:04.345Z,13.30
2018-09-01T22:19:33.109Z,13.20
2018-09-01T22:22:02.301Z,13.20
2018-09-01T22:24:31.738Z,13.20
2018-09-01T22:27:00.675Z,13.30
2018-09-01T22:29:30.165Z,13.20
2018-09-01T22:31:59.305Z,13.10
2018-09-01T22:34:28.580Z,13.10
2018-09-01T22:36:57.896Z,13.10
2018-09-01T22:39:26.861Z,13.10
2018-09-01T22:41:55.757Z,13.10
2018-09-01T22:44:24.427Z,13.10
2018-09-01T22:46:54.552Z,13.10
2018-09-01T22:49:23.953Z,13.10
2018-09-01T22:51:52.618Z,13.10
2018-09-01T22:54:21.268Z,13.10
2018-09-01T22:56:50.076Z,13.10
2018-09-01T22:59:18.740Z,13.10
2018-09-01T23:01:47.944Z,13.00
2018-09-01T23:04:17.148Z,13.00
2018-09-01T23:06:45.868Z,13.00
2018-09-01T23:09:14.993Z,13.10
2018-09-01T23:11:43.796Z,13.00
2018-09-01T23:14:12.329Z,13.00
2018-09-01T23:16:40.985Z,13.00
2018-09-01T23:19:09.603Z,13.00
2018-09-01T23:21:38.111Z,13.00
2018-09-01T23:24:07.016Z,13.00
2018-09-01T23:26:35.656Z,13.00
2018-09-01T23:29:04.497Z,13.00
2018-09-01T23:31:33.317Z,13.00
2018-09-01T23:34:01.873Z,13.00
2018-09-01T23:36:30.507Z,13.00
2018-09-01T23:38:59.080Z,13.10
2018-09-01T23:41:27.641Z,13.10
2018-09-01T23:43:56.528Z,13.00
2018-09-01T23:46:25.099Z,13.10
2018-09-01T23:48:54.398Z,13.20
2018-09-01T23:51:22.927Z,13.20
2018-09-01T23:53:51.981Z,13.30
2018-09-01T23:56:21.318Z,13.30
2018-09-01T23:58:49.922Z,13.30
